createdAt,value
2019-03-24T00:01:41.974Z,15.90
2019-03-24T00:04:13.397Z,17.03
2019-03-24T00:06:44.688Z,17.40
2019-03-24T00:09:16.176Z,18.17
2019-03-24T00:11:47.447Z,19.67
2019-03-24T00:14:18.823Z,17.63
2019-03-24T00:16:50.354Z,18.50
2019-03-24T00:19:21.633Z,20.70
2019-03-24T00:21:53.112Z,21.90
2019-03-24T00:24:24.444Z,23.50
2019-03-24T00:26:56.115Z,24.13
2019-03-24T00:29:27.536Z,25.60
2019-03-24T00:31:59.038Z,24.30
2019-03-24T00:34:31.410Z,25.07
2019-03-24T00:37:02.843Z,25.27
2019-03-24T00:39:34.158Z,27.90
2019-03-24T00:42:05.916Z,30.33
2019-03-24T00:44:37.257Z,25.53
2019-03-24T00:47:08.769Z,23.37
2019-03-24T00:49:40.166Z,24.90
2019-03-24T00:52:11.557Z,23.80
2019-03-24T00:54:42.932Z,24.93
2019-03-24T00:57:14.266Z,24.77
2019-03-24T00:59:45.575Z,24.70
2019-03-24T01:02:17.048Z,25.47
2019-03-24T01:04:48.459Z,24.80
2019-03-24T01:07:19.951Z,24.20
2019-03-24T01:09:51.224Z,26.67
2019-03-24T01:12:22.659Z,26.70
2019-03-24T01:14:54.994Z,24.57
2019-03-24T01:17:26.564Z,28.43
2019-03-24T01:19:57.894Z,30.03
2019-03-24T01:22:29.549Z,28.97
2019-03-24T01:25:01.002Z,25.60
2019-03-24T01:27:32.435Z,25.87
2019-03-24T01:30:04.583Z,27.90
2019-03-24T01:32:35.948Z,26.63
2019-03-24T01:35:07.941Z,29.67
2019-03-24T01:37:39.367Z,31.03
2019-03-24T01:40:11.692Z,29.30
2019-03-24T01:42:43.420Z,25.40
2019-03-24T01:45:15.194Z,28.37
2019-03-24T01:47:46.625Z,27.50
2019-03-24T01:50:19.003Z,27.70
2019-03-24T01:52:50.327Z,29.07
2019-03-24T01:55:21.676Z,28.77
2019-03-24T01:57:53.040Z,29.43
2019-03-24T02:00:24.786Z,27.60
2019-03-24T02:02:55.924Z,29.17
2019-03-24T02:05:27.597Z,28.33
2019-03-24T02:07:59.151Z,32.37
2019-03-24T02:10:30.657Z,30.13
2019-03-24T02:13:01.932Z,24.90
2019-03-24T02:15:33.512Z,24.97
2019-03-24T02:18:04.938Z,23.20
2019-03-24T02:20:36.131Z,22.50
2019-03-24T02:23:07.477Z,23.03
2019-03-24T02:25:38.869Z,24.83
2019-03-24T02:28:10.281Z,23.53
2019-03-24T02:30:41.577Z,24.83
2019-03-24T02:33:13.171Z,22.70
2019-03-24T02:35:45.617Z,20.37
2019-03-24T02:38:17.478Z,20.70
2019-03-24T02:40:48.820Z,21.57
2019-03-24T02:43:20.497Z,18.93
2019-03-24T02:45:51.829Z,20.37
2019-03-24T02:48:23.404Z,20.87
2019-03-24T02:50:54.743Z,23.80
2019-03-24T02:53:26.117Z,21.77
2019-03-24T02:55:58.600Z,26.53
2019-03-24T02:58:29.942Z,26.60
2019-03-24T03:01:01.231Z,25.57
2019-03-24T03:03:32.536Z,22.73
2019-03-24T03:06:03.925Z,23.83
2019-03-24T03:08:35.234Z,22.97
2019-03-24T03:11:06.727Z,24.37
2019-03-24T03:13:38.039Z,21.90
2019-03-24T03:16:09.428Z,22.50
2019-03-24T03:18:40.813Z,22.43
2019-03-24T03:21:12.057Z,24.30
2019-03-24T03:23:43.471Z,23.30
2019-03-24T03:26:14.877Z,24.47
2019-03-24T03:28:46.897Z,25.57
2019-03-24T03:31:18.463Z,24.37
2019-03-24T03:33:49.808Z,24.23
2019-03-24T03:36:21.179Z,26.07
2019-03-24T03:38:52.698Z,27.37
2019-03-24T03:41:24.155Z,28.00
2019-03-24T03:43:55.530Z,27.97
2019-03-24T03:46:26.858Z,26.70
2019-03-24T03:48:59.717Z,24.93
2019-03-24T03:51:31.079Z,26.17
2019-03-24T03:54:02.668Z,25.23
2019-03-24T03:56:34.076Z,24.37
2019-03-24T03:59:05.576Z,23.30
2019-03-24T04:01:36.988Z,25.33
2019-03-24T04:04:08.269Z,25.50
2019-03-24T04:06:39.775Z,23.27
2019-03-24T04:09:11.183Z,25.10
2019-03-24T04:11:42.472Z,27.37
2019-03-24T04:14:13.651Z,26.30
2019-03-24T04:16:44.970Z,26.13
2019-03-24T04:19:16.260Z,27.10
2019-03-24T04:21:47.569Z,28.23
2019-03-24T04:24:19.035Z,28.77
2019-03-24T04:26:50.372Z,26.20
2019-03-24T04:29:21.790Z,27.30
2019-03-24T04:31:53.162Z,26.30
2019-03-24T04:34:24.556Z,28.07
2019-03-24T04:36:55.961Z,28.87
2019-03-24T04:39:27.502Z,26.73
2019-03-24T04:41:58.974Z,26.03
2019-03-24T04:44:30.465Z,29.13
2019-03-24T04:47:01.865Z,24.27
2019-03-24T04:49:33.341Z,29.87
2019-03-24T04:52:04.858Z,28.23
2019-03-24T04:54:36.175Z,26.20
2019-03-24T04:57:07.654Z,25.10
2019-03-24T04:59:39.082Z,25.80
2019-03-24T05:02:10.558Z,24.97
2019-03-24T05:04:41.866Z,29.03
2019-03-24T05:07:13.150Z,27.70
2019-03-24T05:09:45.016Z,29.40
2019-03-24T05:12:16.314Z,30.30
2019-03-24T05:14:47.516Z,29.20
2019-03-24T05:17:26.765Z,31.43
2019-03-24T05:19:51.959Z,26.33
2019-03-24T05:22:23.342Z,24.87
2019-03-24T05:24:54.650Z,21.47
2019-03-24T05:27:26.081Z,21.80
2019-03-24T05:29:58.312Z,22.97
2019-03-24T05:32:29.625Z,22.63
2019-03-24T05:35:01.024Z,23.97
2019-03-24T05:37:32.401Z,21.80
2019-03-24T05:40:04.308Z,21.70
2019-03-24T05:42:35.716Z,22.00
2019-03-24T05:45:07.683Z,23.50
2019-03-24T05:47:38.937Z,25.87
2019-03-24T05:50:11.637Z,27.30
2019-03-24T05:52:42.952Z,25.60
2019-03-24T05:55:14.649Z,23.93
2019-03-24T05:57:45.972Z,26.07
2019-03-24T06:00:17.628Z,27.50
2019-03-24T06:02:48.972Z,23.27
2019-03-24T06:05:20.317Z,27.10
2019-03-24T06:07:51.695Z,23.73
2019-03-24T06:10:23.007Z,22.57
2019-03-24T06:12:54.388Z,22.90
2019-03-24T06:15:25.712Z,25.43
2019-03-24T06:17:56.985Z,24.53
2019-03-24T06:20:28.307Z,26.13
2019-03-24T06:22:59.696Z,26.37
2019-03-24T06:25:30.990Z,27.87
2019-03-24T06:28:02.304Z,26.33
2019-03-24T06:30:33.793Z,22.77
2019-03-24T06:33:05.203Z,26.60
2019-03-24T06:35:36.480Z,24.63
2019-03-24T06:38:08.073Z,26.63
2019-03-24T06:40:39.406Z,25.60
2019-03-24T06:43:10.792Z,23.40
2019-03-24T06:45:42.190Z,25.20
2019-03-24T06:48:13.589Z,25.87
2019-03-24T06:50:44.886Z,23.97
2019-03-24T06:53:16.200Z,25.30
2019-03-24T06:55:47.577Z,29.73
2019-03-24T06:58:18.867Z,26.83
2019-03-24T07:00:50.277Z,26.20
2019-03-24T07:03:21.575Z,25.83
2019-03-24T07:05:53.587Z,25.93
2019-03-24T07:08:24.935Z,27.73
2019-03-24T07:10:56.238Z,23.67
2019-03-24T07:13:27.499Z,26.60
2019-03-24T07:15:58.892Z,28.70
2019-03-24T07:18:30.796Z,25.27
2019-03-24T07:21:02.187Z,27.53
2019-03-24T07:23:33.743Z,29.77
2019-03-24T07:26:05.101Z,28.23
2019-03-24T07:28:36.542Z,26.57
2019-03-24T07:31:07.903Z,26.47
2019-03-24T07:33:39.235Z,30.73
2019-03-24T07:36:10.633Z,27.30
2019-03-24T07:38:41.948Z,26.80
2019-03-24T07:41:13.293Z,31.90
2019-03-24T07:43:45.713Z,30.90
2019-03-24T07:46:17.208Z,31.67
2019-03-24T07:48:48.469Z,33.10
2019-03-24T07:51:19.841Z,30.57
2019-03-24T07:53:51.205Z,30.27
2019-03-24T07:56:22.648Z,30.13
2019-03-24T07:58:54.109Z,32.13
2019-03-24T08:01:25.400Z,29.20
2019-03-24T08:03:56.805Z,31.43
2019-03-24T08:06:28.199Z,35.50
2019-03-24T08:08:59.441Z,32.87
2019-03-24T08:11:30.847Z,33.97
2019-03-24T08:14:02.139Z,34.80
2019-03-24T08:16:33.444Z,33.87
2019-03-24T08:19:04.839Z,34.27
2019-03-24T08:21:36.240Z,33.70
2019-03-24T08:24:07.630Z,34.40
2019-03-24T08:26:39.020Z,35.70
2019-03-24T08:29:10.496Z,36.07
2019-03-24T08:31:41.837Z,34.87
2019-03-24T08:34:13.131Z,32.57
2019-03-24T08:36:45.637Z,36.67
2019-03-24T08:39:16.967Z,31.70
2019-03-24T08:41:48.484Z,34.20
2019-03-24T08:44:19.978Z,31.83
2019-03-24T08:46:51.448Z,34.17
2019-03-24T08:49:22.799Z,35.03
2019-03-24T08:51:54.117Z,32.70
2019-03-24T08:54:25.502Z,32.77
2019-03-24T08:56:56.895Z,32.70
2019-03-24T08:59:28.203Z,33.03
2019-03-24T09:01:59.495Z,31.87
2019-03-24T09:04:30.799Z,34.90
2019-03-24T09:07:02.405Z,31.83
2019-03-24T09:09:33.739Z,32.57
2019-03-24T09:12:05.236Z,32.27
2019-03-24T09:14:36.702Z,33.30
2019-03-24T09:17:08.013Z,32.67
2019-03-24T09:19:39.652Z,32.23
2019-03-24T09:22:11.001Z,31.13
2019-03-24T09:24:43.328Z,30.30
2019-03-24T09:27:15.697Z,32.17
2019-03-24T09:29:47.086Z,31.30
2019-03-24T09:32:18.494Z,32.53
2019-03-24T09:34:49.787Z,30.53
2019-03-24T09:37:21.369Z,34.40
2019-03-24T09:39:52.794Z,33.43
2019-03-24T09:42:24.490Z,30.57
2019-03-24T09:44:55.792Z,30.67
2019-03-24T09:47:27.295Z,31.93
2019-03-24T09:49:58.598Z,30.47
2019-03-24T09:52:30.004Z,34.53
2019-03-24T09:55:01.402Z,33.70
2019-03-24T09:57:32.765Z,32.97
2019-03-24T10:00:04.464Z,29.17
2019-03-24T10:02:35.956Z,30.00
2019-03-24T10:05:07.626Z,31.67
2019-03-24T10:07:39.061Z,33.10
2019-03-24T10:10:11.264Z,28.73
2019-03-24T10:12:43.601Z,27.20
2019-03-24T10:15:15.344Z,28.50
2019-03-24T10:17:46.704Z,30.00
2019-03-24T10:20:18.216Z,28.10
2019-03-24T10:22:49.966Z,31.30
2019-03-24T10:25:21.473Z,30.40
2019-03-24T10:27:52.769Z,28.33
2019-03-24T10:30:24.117Z,27.83
2019-03-24T10:32:55.491Z,31.30
2019-03-24T10:35:26.775Z,31.47
2019-03-24T10:37:58.265Z,25.90
2019-03-24T10:40:29.569Z,29.00
2019-03-24T10:43:01.111Z,27.57
2019-03-24T10:45:32.581Z,27.63
2019-03-24T10:48:04.052Z,24.10
2019-03-24T10:50:35.362Z,22.87
2019-03-24T10:53:06.767Z,23.53
2019-03-24T10:55:38.178Z,25.60
2019-03-24T10:58:09.646Z,25.33
2019-03-24T11:00:42.655Z,23.87
2019-03-24T11:03:14.210Z,24.67
2019-03-24T11:05:45.850Z,24.47
2019-03-24T11:08:17.273Z,25.60
2019-03-24T11:10:48.772Z,24.17
2019-03-24T11:13:20.156Z,24.30
2019-03-24T11:15:51.644Z,24.17
2019-03-24T11:18:23.027Z,22.87
2019-03-24T11:20:54.349Z,21.90
2019-03-24T11:23:25.660Z,23.53
2019-03-24T11:25:56.975Z,23.20
2019-03-24T11:28:28.239Z,24.97
2019-03-24T11:30:59.549Z,21.50
2019-03-24T11:33:30.845Z,23.77
2019-03-24T11:36:03.278Z,21.60
2019-03-24T11:38:35.276Z,21.13
2019-03-24T11:41:06.689Z,23.80
2019-03-24T11:43:38.296Z,20.90
2019-03-24T11:46:09.694Z,24.00
2019-03-24T11:48:41.117Z,24.57
2019-03-24T11:51:12.429Z,22.13
2019-03-24T11:53:43.732Z,25.00
2019-03-24T11:56:15.037Z,23.77
2019-03-24T11:58:46.503Z,25.00
2019-03-24T12:01:18.037Z,23.40
2019-03-24T12:03:49.435Z,25.93
2019-03-24T12:06:20.722Z,26.30
2019-03-24T12:08:52.012Z,22.03
2019-03-24T12:11:23.418Z,22.20
2019-03-24T12:13:54.721Z,21.70
2019-03-24T12:16:26.014Z,24.80
2019-03-24T12:18:57.298Z,23.23
2019-03-24T12:21:28.676Z,23.70
2019-03-24T12:23:59.860Z,22.93
2019-03-24T12:26:31.163Z,24.10
2019-03-24T12:29:02.446Z,23.27
2019-03-24T12:31:33.769Z,21.00
2019-03-24T12:34:05.152Z,25.13
2019-03-24T12:36:36.639Z,21.87
2019-03-24T12:39:08.673Z,22.73
2019-03-24T12:41:40.051Z,23.20
2019-03-24T12:44:11.523Z,19.87
2019-03-24T12:46:42.811Z,21.30
2019-03-24T12:49:14.407Z,21.83
2019-03-24T12:51:45.811Z,22.10
2019-03-24T12:54:17.106Z,21.60
2019-03-24T12:56:49.448Z,20.70
2019-03-24T12:59:20.756Z,22.47
2019-03-24T13:01:52.931Z,21.30
2019-03-24T13:04:24.499Z,20.40
2019-03-24T13:06:56.771Z,22.63
2019-03-24T13:09:28.996Z,21.37
2019-03-24T13:12:00.388Z,20.70
2019-03-24T13:14:31.586Z,19.27
2019-03-24T13:17:02.995Z,21.10
2019-03-24T13:19:36.151Z,19.10
2019-03-24T13:22:07.727Z,20.33
2019-03-24T13:24:40.302Z,19.97
2019-03-24T13:27:11.646Z,20.47
2019-03-24T13:29:43.124Z,19.77
2019-03-24T13:32:16.565Z,19.60
2019-03-24T13:34:47.905Z,20.02
2019-03-24T13:37:19.298Z,18.50
2019-03-24T13:39:50.598Z,19.73
2019-03-24T13:42:21.935Z,20.40
2019-03-24T13:44:53.352Z,18.03
2019-03-24T13:47:24.804Z,17.93
2019-03-24T13:49:56.055Z,19.20
2019-03-24T13:52:27.712Z,19.57
2019-03-24T13:54:59.039Z,15.70
2019-03-24T13:57:30.941Z,17.37
2019-03-24T14:00:02.350Z,17.73
2019-03-24T14:02:35.288Z,18.73
2019-03-24T14:05:06.788Z,19.40
2019-03-24T14:07:38.310Z,17.90
2019-03-24T14:10:09.966Z,19.57
2019-03-24T14:12:41.446Z,16.83
2019-03-24T14:15:12.787Z,17.37
2019-03-24T14:17:43.992Z,18.80
2019-03-24T14:20:15.490Z,16.30
2019-03-24T14:22:46.928Z,16.03
2019-03-24T14:25:18.335Z,17.07
2019-03-24T14:27:49.639Z,14.63
2019-03-24T14:30:30.480Z,14.70
2019-03-24T14:33:01.812Z,16.57
2019-03-24T14:35:33.104Z,16.03
2019-03-24T14:38:04.626Z,17.57
2019-03-24T14:40:36.020Z,14.70
2019-03-24T14:43:07.526Z,15.30
2019-03-24T14:45:38.920Z,15.83
2019-03-24T14:48:10.208Z,16.53
2019-03-24T14:50:41.597Z,15.33
2019-03-24T14:53:13.007Z,15.50
2019-03-24T14:55:44.408Z,17.20
2019-03-24T14:58:16.830Z,18.13
2019-03-24T15:00:48.270Z,16.45
2019-03-24T15:03:19.690Z,18.70
2019-03-24T15:05:51.070Z,16.30
2019-03-24T15:08:22.487Z,17.27
2019-03-24T15:10:53.823Z,16.60
2019-03-24T15:13:25.187Z,16.20
2019-03-24T15:15:56.650Z,16.80
2019-03-24T15:18:28.085Z,16.23
2019-03-24T15:21:05.483Z,17.60
2019-03-24T15:23:32.766Z,17.87
2019-03-24T15:26:04.165Z,16.97
2019-03-24T15:28:35.560Z,16.33
2019-03-24T15:31:06.979Z,18.70
2019-03-24T15:33:38.357Z,16.40
2019-03-24T15:36:09.836Z,17.87
2019-03-24T15:38:41.318Z,17.93
2019-03-24T15:41:12.741Z,16.60
2019-03-24T15:43:44.118Z,22.37
2019-03-24T15:46:15.528Z,18.67
2019-03-24T15:48:46.836Z,18.77
2019-03-24T15:51:18.120Z,19.73
2019-03-24T15:53:50.443Z,19.57
2019-03-24T15:56:21.923Z,20.77
2019-03-24T15:58:53.252Z,19.47
2019-03-24T16:01:24.719Z,20.93
2019-03-24T16:03:56.380Z,20.40
2019-03-24T16:06:27.889Z,21.30
2019-03-24T16:08:59.492Z,19.73
2019-03-24T16:11:30.895Z,20.33
2019-03-24T16:14:03.366Z,20.50
2019-03-24T16:16:34.740Z,18.70
2019-03-24T16:19:06.037Z,20.50
2019-03-24T16:21:37.315Z,20.47
2019-03-24T16:24:08.570Z,21.20
2019-03-24T16:26:39.872Z,21.60
2019-03-24T16:29:11.180Z,21.77
2019-03-24T16:31:42.498Z,20.37
2019-03-24T16:34:14.914Z,20.03
2019-03-24T16:36:46.320Z,20.40
2019-03-24T16:39:17.608Z,21.17
2019-03-24T16:41:49.028Z,20.90
2019-03-24T16:44:20.300Z,20.70
2019-03-24T16:46:51.624Z,20.97
2019-03-24T16:49:23.088Z,25.13
2019-03-24T16:51:54.434Z,20.93
2019-03-24T16:54:25.768Z,22.00
2019-03-24T16:56:57.360Z,25.57
2019-03-24T16:59:28.666Z,21.97
2019-03-24T17:01:59.960Z,25.10
2019-03-24T17:04:31.254Z,21.30
2019-03-24T17:07:02.659Z,22.87
2019-03-24T17:09:33.955Z,22.33
2019-03-24T17:12:05.332Z,21.57
2019-03-24T17:14:37.468Z,20.90
2019-03-24T17:17:11.362Z,21.80
2019-03-24T17:19:41.700Z,20.80
2019-03-24T17:22:14.220Z,20.03
2019-03-24T17:24:45.520Z,21.97
2019-03-24T17:27:16.768Z,18.53
2019-03-24T17:29:48.160Z,19.40
2019-03-24T17:32:19.462Z,19.17
2019-03-24T17:34:50.881Z,21.50
2019-03-24T17:37:22.263Z,21.57
2019-03-24T17:39:53.658Z,21.50
2019-03-24T17:42:25.004Z,18.93
2019-03-24T17:44:56.436Z,19.80
2019-03-24T17:47:27.897Z,19.40
2019-03-24T17:49:59.326Z,24.90
2019-03-24T17:52:30.714Z,18.63
2019-03-24T17:55:01.921Z,21.67
2019-03-24T17:57:33.387Z,18.93
2019-03-24T18:00:05.672Z,18.90
2019-03-24T18:02:38.170Z,18.60
2019-03-24T18:05:10.064Z,19.73
2019-03-24T18:07:41.719Z,19.37
2019-03-24T18:10:13.479Z,19.03
2019-03-24T18:12:44.772Z,19.67
2019-03-24T18:15:16.185Z,17.83
2019-03-24T18:17:47.948Z,19.40
2019-03-24T18:20:40.391Z,18.40
2019-03-24T18:23:11.876Z,20.93
2019-03-24T18:25:43.216Z,18.67
2019-03-24T18:28:14.637Z,19.10
2019-03-24T18:30:45.933Z,18.77
2019-03-24T18:33:17.227Z,19.90
2019-03-24T18:35:48.732Z,18.77
2019-03-24T18:38:20.034Z,19.50
2019-03-24T18:40:51.524Z,18.30
2019-03-24T18:43:24.768Z,19.97
2019-03-24T18:45:56.148Z,19.10
2019-03-24T18:48:27.979Z,21.50
2019-03-24T18:50:59.319Z,19.47
2019-03-24T18:53:30.625Z,18.83
2019-03-24T18:56:02.094Z,17.83
2019-03-24T18:58:33.514Z,18.43
2019-03-24T19:01:04.920Z,18.70
2019-03-24T19:03:36.217Z,20.90
2019-03-24T19:06:07.623Z,20.30
2019-03-24T19:08:39.231Z,17.80
2019-03-24T19:11:10.887Z,18.70
2019-03-24T19:13:42.387Z,20.37
2019-03-24T19:16:13.823Z,19.30
2019-03-24T19:18:48.400Z,20.80
2019-03-24T19:21:19.695Z,20.63
2019-03-24T19:23:51.101Z,18.60
2019-03-24T19:26:22.402Z,18.00
2019-03-24T19:28:53.753Z,19.40
2019-03-24T19:31:25.231Z,20.07
2019-03-24T19:33:57.040Z,19.57
2019-03-24T19:36:28.643Z,18.97
2019-03-24T19:39:00.466Z,20.43
2019-03-24T19:41:33.396Z,19.20
2019-03-24T19:44:04.799Z,17.63
2019-03-24T19:46:36.209Z,19.30
2019-03-24T19:49:08.516Z,20.10
2019-03-24T19:51:39.828Z,21.53
2019-03-24T19:54:11.017Z,18.30
2019-03-24T19:56:42.417Z,19.27
2019-03-24T19:59:13.878Z,20.80
2019-03-24T20:01:45.261Z,18.50
2019-03-24T20:04:16.548Z,20.90
2019-03-24T20:06:47.871Z,19.30
2019-03-24T20:09:19.242Z,20.37
2019-03-24T20:11:50.714Z,21.00
2019-03-24T20:14:24.045Z,20.77
2019-03-24T20:16:55.232Z,21.63
2019-03-24T20:19:26.540Z,20.90
2019-03-24T20:21:57.932Z,20.37
2019-03-24T20:24:29.240Z,19.10
2019-03-24T20:27:00.540Z,20.60
2019-03-24T20:29:31.832Z,17.50
2019-03-24T20:32:03.140Z,20.23
2019-03-24T20:34:34.528Z,20.20
2019-03-24T20:37:05.992Z,20.13
2019-03-24T20:39:37.489Z,19.83
2019-03-24T20:42:08.794Z,19.80
2019-03-24T20:44:40.169Z,21.20
2019-03-24T20:47:11.482Z,20.03
2019-03-24T20:49:42.784Z,20.10
2019-03-24T20:52:14.078Z,21.27
2019-03-24T20:54:45.862Z,19.80
2019-03-24T20:57:17.203Z,18.17
2019-03-24T20:59:48.668Z,20.37
2019-03-24T21:02:20.089Z,20.83
2019-03-24T21:04:51.680Z,20.93
2019-03-24T21:07:23.092Z,21.03
2019-03-24T21:09:54.468Z,21.00
2019-03-24T21:12:25.849Z,20.47
2019-03-24T21:14:57.225Z,20.70
2019-03-24T21:17:28.825Z,20.10
2019-03-24T21:20:00.129Z,17.73
2019-03-24T21:22:31.542Z,21.03
2019-03-24T21:25:04.181Z,21.50
2019-03-24T21:27:35.506Z,21.83
2019-03-24T21:30:08.395Z,20.57
2019-03-24T21:32:39.683Z,20.77
2019-03-24T21:35:11.188Z,22.20
2019-03-24T21:37:42.582Z,22.57
2019-03-24T21:40:14.253Z,19.50
2019-03-24T21:42:47.676Z,23.03
2019-03-24T21:45:19.071Z,20.80
2019-03-24T21:47:50.859Z,21.77
2019-03-24T21:50:22.246Z,22.83
2019-03-24T21:52:53.736Z,22.63
2019-03-24T21:55:25.049Z,22.37
2019-03-24T21:57:57.693Z,20.43
2019-03-24T22:00:36.232Z,24.07
2019-03-24T22:03:08.357Z,22.60
2019-03-24T22:05:39.780Z,20.83
2019-03-24T22:08:11.160Z,22.57
2019-03-24T22:10:42.687Z,22.33
2019-03-24T22:13:14.113Z,21.13
2019-03-24T22:15:45.448Z,21.10
2019-03-24T22:18:16.806Z,22.40
2019-03-24T22:20:49.296Z,22.17
2019-03-24T22:23:20.864Z,22.70
2019-03-24T22:25:51.954Z,22.47
2019-03-24T22:28:23.260Z,20.03
2019-03-24T22:30:54.570Z,22.53
2019-03-24T22:33:25.975Z,24.00
2019-03-24T22:35:57.471Z,22.87
2019-03-24T22:38:29.083Z,21.30
2019-03-24T22:41:00.476Z,23.07
2019-03-24T22:43:32.161Z,22.07
2019-03-24T22:46:04.606Z,24.23
2019-03-24T22:48:35.915Z,20.47
2019-03-24T22:51:07.302Z,20.13
2019-03-24T22:53:38.707Z,21.90
2019-03-24T22:56:10.094Z,22.20
2019-03-24T22:58:41.509Z,21.63
2019-03-24T23:01:13.447Z,22.43
2019-03-24T23:03:44.860Z,22.53
2019-03-24T23:06:16.151Z,24.40
2019-03-24T23:08:47.557Z,20.20
2019-03-24T23:11:18.856Z,20.90
2019-03-24T23:13:50.166Z,21.40
2019-03-24T23:16:22.669Z,21.60
2019-03-24T23:18:54.011Z,21.20
2019-03-24T23:21:25.331Z,19.13
2019-03-24T23:23:56.731Z,19.70
2019-03-24T23:26:28.031Z,21.87
2019-03-24T23:28:59.528Z,22.37
2019-03-24T23:31:30.939Z,23.17
2019-03-24T23:34:02.311Z,22.30
2019-03-24T23:36:33.631Z,21.80
2019-03-24T23:39:05.663Z,19.27
2019-03-24T23:41:36.995Z,19.20
2019-03-24T23:44:08.276Z,19.20
2019-03-24T23:46:39.707Z,21.57
2019-03-24T23:49:11.098Z,24.90
2019-03-24T23:51:42.559Z,22.50
2019-03-24T23:54:13.877Z,23.57
2019-03-24T23:56:45.348Z,23.37
2019-03-24T23:59:16.715Z,23.03
